createdAt,value
2022-09-06T00:02:06.819Z,37.80
2022-09-06T00:04:38.472Z,37.61
2022-09-06T00:07:08.633Z,37.50
2022-09-06T00:09:40.720Z,37.78
2022-09-06T00:12:12.041Z,36.98
2022-09-06T00:14:47.120Z,37.46
2022-09-06T00:17:18.379Z,37.92
2022-09-06T00:19:48.610Z,37.51
2022-09-06T00:22:19.385Z,37.45
2022-09-06T00:24:49.690Z,37.69
2022-09-06T00:27:18.121Z,37.76
2022-09-06T00:29:47.551Z,37.68
2022-09-06T00:32:19.276Z,37.70
2022-09-06T00:34:47.397Z,37.79
2022-09-06T00:37:16.085Z,37.60
2022-09-06T00:39:44.021Z,37.69
2022-09-06T00:42:13.761Z,37.63
2022-09-06T00:44:42.128Z,37.84
2022-09-06T00:47:11.790Z,37.65
2022-09-06T00:49:45.466Z,37.68
2022-09-06T00:52:16.724Z,37.67
2022-09-06T00:54:45.105Z,37.45
2022-09-06T00:57:14.761Z,37.83
2022-09-06T00:59:44.008Z,37.71
2022-09-06T01:02:13.853Z,37.59
2022-09-06T01:04:45.133Z,37.19
2022-09-06T01:07:24.826Z,37.85
2022-09-06T01:10:09.882Z,38.01
2022-09-06T01:12:47.179Z,37.83
2022-09-06T01:15:25.832Z,38.01
2022-09-06T01:18:08.145Z,37.12
2022-09-06T01:20:46.207Z,37.77
2022-09-06T01:24:04.392Z,38.07
2022-09-06T01:27:07.132Z,38.03
2022-09-06T01:29:48.031Z,38.01
2022-09-06T01:32:25.158Z,37.98
2022-09-06T01:34:58.879Z,38.34
2022-09-06T01:37:32.477Z,37.78
2022-09-06T01:40:02.642Z,37.83
2022-09-06T01:42:34.453Z,38.24
2022-09-06T01:45:12.897Z,37.97
2022-09-06T01:47:51.962Z,37.41
2022-09-06T01:50:36.658Z,37.72
2022-09-06T01:53:17.988Z,37.64
2022-09-06T01:55:59.996Z,37.59
2022-09-06T01:58:47.441Z,37.68
2022-09-06T02:01:26.728Z,37.52
2022-09-06T02:04:03.156Z,37.46
2022-09-06T02:06:39.732Z,37.27
2022-09-06T02:09:13.620Z,37.48
2022-09-06T02:11:48.726Z,37.20
2022-09-06T02:14:24.417Z,37.33
2022-09-06T02:16:59.976Z,37.25
2022-09-06T02:19:39.152Z,37.44
2022-09-06T02:22:13.522Z,37.16
2022-09-06T02:24:46.518Z,37.18
2022-09-06T02:27:17.659Z,37.10
2022-09-06T02:29:47.568Z,37.12
2022-09-06T02:32:24.181Z,37.09
2022-09-06T02:34:57.404Z,37.47
2022-09-06T02:37:27.802Z,37.21
2022-09-06T02:39:58.519Z,37.22
2022-09-06T02:42:28.506Z,37.41
2022-09-06T02:44:58.079Z,37.16
2022-09-06T02:47:31.915Z,37.10
2022-09-06T02:50:04.023Z,37.39
2022-09-06T02:52:35.561Z,37.56
2022-09-06T02:55:05.969Z,37.36
2022-09-06T02:57:38.403Z,37.52
2022-09-06T03:00:09.681Z,36.83
2022-09-06T03:02:41.914Z,37.61
2022-09-06T03:05:14.528Z,37.30
2022-09-06T03:07:43.894Z,37.20
2022-09-06T03:10:12.818Z,37.45
2022-09-06T03:12:45.433Z,37.39
2022-09-06T03:15:16.202Z,37.66
2022-09-06T03:17:49.346Z,37.59
2022-09-06T03:20:21.198Z,37.46
2022-09-06T03:22:52.504Z,37.43
2022-09-06T03:25:22.961Z,37.70
2022-09-06T03:27:51.415Z,37.52
2022-09-06T03:30:19.746Z,37.51
2022-09-06T03:32:49.217Z,37.88
2022-09-06T03:35:17.382Z,37.81
2022-09-06T03:37:45.511Z,38.10
2022-09-06T03:40:14.049Z,37.88
2022-09-06T03:42:42.894Z,37.60
2022-09-06T03:45:11.388Z,37.51
2022-09-06T03:47:39.790Z,37.96
2022-09-06T03:50:10.269Z,37.96
2022-09-06T03:52:38.490Z,37.72
2022-09-06T03:55:08.316Z,37.83
2022-09-06T03:57:36.714Z,37.89
2022-09-06T04:00:06.799Z,37.95
2022-09-06T04:02:39.756Z,37.96
2022-09-06T04:05:10.866Z,38.18
2022-09-06T04:07:39.867Z,37.94
2022-09-06T04:10:11.407Z,37.99
2022-09-06T04:12:41.750Z,38.25
2022-09-06T04:15:11.717Z,38.10
2022-09-06T04:17:41.731Z,38.23
2022-09-06T04:20:13.634Z,38.05
2022-09-06T04:22:45.193Z,38.37
2022-09-06T04:25:17.223Z,38.23
2022-09-06T04:27:47.154Z,38.59
2022-09-06T04:30:19.755Z,38.47
2022-09-06T04:32:50.262Z,38.02
2022-09-06T04:35:24.085Z,39.00
2022-09-06T04:37:55.451Z,38.83
2022-09-06T04:40:27.287Z,38.76
2022-09-06T04:42:57.737Z,38.85
2022-09-06T04:45:28.806Z,38.81
2022-09-06T04:48:02.331Z,38.53
2022-09-06T04:50:35.853Z,38.89
2022-09-06T04:53:08.140Z,38.95
2022-09-06T04:55:38.264Z,39.09
2022-09-06T04:58:09.305Z,39.37
2022-09-06T05:00:41.822Z,38.99
2022-09-06T05:03:13.773Z,39.05
2022-09-06T05:05:44.369Z,39.05
2022-09-06T05:08:13.415Z,39.23
2022-09-06T05:10:44.485Z,39.36
2022-09-06T05:13:15.201Z,39.22
2022-09-06T05:15:47.133Z,39.36
2022-09-06T05:18:17.212Z,39.23
2022-09-06T05:20:54.518Z,39.58
2022-09-06T05:23:25.555Z,39.76
2022-09-06T05:25:57.537Z,39.74
2022-09-06T05:28:29.659Z,39.68
2022-09-06T05:31:10.797Z,39.52
2022-09-06T05:33:44.716Z,39.64
2022-09-06T05:36:16.739Z,39.56
2022-09-06T05:38:46.130Z,39.93
2022-09-06T05:41:17.335Z,40.21
2022-09-06T05:43:49.785Z,40.25
2022-09-06T05:46:21.587Z,40.12
2022-09-06T05:48:55.894Z,40.17
2022-09-06T05:51:27.666Z,40.23
2022-09-06T05:53:58.439Z,40.26
2022-09-06T05:56:27.297Z,40.27
2022-09-06T05:58:56.737Z,40.66
2022-09-06T06:01:28.811Z,40.53
2022-09-06T06:04:00.913Z,40.66
2022-09-06T06:06:37.230Z,40.75
2022-09-06T06:09:10.045Z,40.55
2022-09-06T06:11:40.971Z,40.79
2022-09-06T06:14:12.061Z,40.87
2022-09-06T06:16:43.434Z,40.81
2022-09-06T06:19:15.086Z,40.97
2022-09-06T06:21:47.631Z,41.35
2022-09-06T06:24:23.855Z,41.65
2022-09-06T06:26:53.930Z,41.85
2022-09-06T06:29:23.222Z,42.28
2022-09-06T06:31:51.808Z,42.46
2022-09-06T06:34:22.766Z,42.59
2022-09-06T06:36:53.856Z,42.60
2022-09-06T06:39:23.702Z,42.87
2022-09-06T06:41:58.550Z,43.31
2022-09-06T06:44:45.405Z,43.13
2022-09-06T06:47:17.246Z,43.56
2022-09-06T06:49:46.450Z,43.53
2022-09-06T06:52:16.483Z,43.77
2022-09-06T06:54:44.774Z,43.71
2022-09-06T06:57:14.158Z,43.53
2022-09-06T06:59:45.746Z,43.54
2022-09-06T07:02:17.924Z,44.05
2022-09-06T07:04:51.110Z,44.25
2022-09-06T07:07:32.287Z,44.52
2022-09-06T07:12:52.908Z,45.08
2022-09-06T07:15:21.627Z,44.98
2022-09-06T07:17:54.197Z,45.58
2022-09-06T07:20:27.604Z,45.45
2022-09-06T07:25:59.098Z,45.64
2022-09-06T07:28:28.189Z,45.87
2022-09-06T07:30:57.007Z,45.67
2022-09-06T07:33:25.759Z,45.81
2022-09-06T07:35:58.251Z,45.55
2022-09-06T07:38:29.269Z,45.96
2022-09-06T07:40:59.357Z,45.94
2022-09-06T07:43:29.255Z,45.95
2022-09-06T07:46:05.213Z,46.30
2022-09-06T07:48:35.699Z,46.09
2022-09-06T07:51:06.130Z,46.24
2022-09-06T07:53:37.117Z,46.36
2022-09-06T07:56:08.307Z,46.45
2022-09-06T07:58:42.175Z,46.32
2022-09-06T08:01:30.189Z,46.66
2022-09-06T08:04:04.546Z,46.55
2022-09-06T08:09:35.664Z,46.83
2022-09-06T08:12:07.929Z,46.08
2022-09-06T08:14:39.161Z,46.63
2022-09-06T08:17:14.251Z,46.77
2022-09-06T08:19:45.349Z,46.45
2022-09-06T08:22:17.230Z,46.30
2022-09-06T08:24:48.923Z,46.42
2022-09-06T08:27:18.878Z,46.57
2022-09-06T08:29:49.317Z,46.44
2022-09-06T08:32:20.047Z,46.39
2022-09-06T08:34:48.737Z,46.86
2022-09-06T08:37:20.960Z,46.34
2022-09-06T08:39:54.600Z,46.53
2022-09-06T08:42:23.950Z,46.65
2022-09-06T08:44:56.798Z,46.46
2022-09-06T08:47:26.274Z,46.36
2022-09-06T08:49:58.089Z,46.54
2022-09-06T08:53:17.309Z,46.76
2022-09-06T08:55:54.314Z,46.69
2022-09-06T08:58:35.814Z,46.90
2022-09-06T09:01:08.360Z,46.76
2022-09-06T09:03:37.953Z,46.71
2022-09-06T09:06:10.399Z,46.97
2022-09-06T09:08:48.216Z,46.85
2022-09-06T09:11:20.121Z,46.57
2022-09-06T09:13:56.087Z,46.33
2022-09-06T09:16:25.257Z,45.98
2022-09-06T09:18:56.363Z,46.01
2022-09-06T09:21:30.718Z,45.80
2022-09-06T09:24:04.610Z,45.70
2022-09-06T09:26:40.432Z,45.83
2022-09-06T09:29:11.676Z,45.86
2022-09-06T09:31:42.076Z,46.37
2022-09-06T09:34:27.422Z,45.73
2022-09-06T09:40:02.639Z,45.03
2022-09-06T09:42:35.139Z,44.97
2022-09-06T09:45:05.792Z,45.04
2022-09-06T09:47:34.843Z,44.95
2022-09-06T09:50:22.342Z,44.47
2022-09-06T09:52:50.638Z,44.45
2022-09-06T09:55:29.230Z,44.49
2022-09-06T09:58:01.313Z,44.80
2022-09-06T10:00:40.666Z,44.46
2022-09-06T10:03:16.103Z,45.09
2022-09-06T10:06:02.582Z,45.00
2022-09-06T10:08:34.288Z,45.20
2022-09-06T10:11:10.525Z,45.29
2022-09-06T10:13:45.581Z,45.41
2022-09-06T10:16:19.742Z,44.85
2022-09-06T10:18:58.721Z,44.69
2022-09-06T10:21:35.514Z,45.19
2022-09-06T10:24:30.425Z,45.29
2022-09-06T10:27:08.460Z,44.79
2022-09-06T10:29:48.924Z,44.63
2022-09-06T10:32:41.936Z,44.99
2022-09-06T10:35:22.576Z,45.30
2022-09-06T10:38:16.736Z,45.34
2022-09-06T10:41:08.393Z,45.64
2022-09-06T10:43:52.057Z,45.68
2022-09-06T10:46:30.671Z,45.68
2022-09-06T10:49:00.352Z,45.46
2022-09-06T10:51:43.645Z,45.22
2022-09-06T10:54:16.741Z,44.92
2022-09-06T10:56:56.497Z,44.84
2022-09-06T11:02:18.823Z,44.91
2022-09-06T11:10:41.287Z,44.13
2022-09-06T11:13:18.804Z,44.69
2022-09-06T11:15:54.937Z,44.24
2022-09-06T11:18:32.925Z,44.57
2022-09-06T11:21:29.310Z,44.16
2022-09-06T11:24:14.144Z,43.97
2022-09-06T11:27:02.781Z,43.63
2022-09-06T11:29:34.781Z,43.15
2022-09-06T11:34:54.577Z,43.54
2022-09-06T11:37:34.237Z,42.96
2022-09-06T11:40:29.615Z,42.51
2022-09-06T11:43:16.844Z,42.50
2022-09-06T11:45:51.058Z,42.26
2022-09-06T11:48:39.105Z,41.39
2022-09-06T11:51:12.575Z,41.36
2022-09-06T11:54:10.378Z,40.80
2022-09-06T11:56:49.011Z,41.27
2022-09-06T11:59:33.521Z,40.72
2022-09-06T12:02:04.399Z,40.69
2022-09-06T12:05:14.413Z,41.33
2022-09-06T12:08:20.525Z,41.30
2022-09-06T12:10:57.058Z,40.38
2022-09-06T12:13:55.798Z,40.62
2022-09-06T12:16:25.720Z,40.07
2022-09-06T12:18:57.882Z,39.61
2022-09-06T12:21:46.129Z,39.79
2022-09-06T12:24:57.862Z,39.26
2022-09-06T12:27:30.527Z,38.52
2022-09-06T12:30:01.818Z,38.06
2022-09-06T12:32:37.273Z,38.37
2022-09-06T12:37:58.461Z,37.67
2022-09-06T12:40:34.190Z,38.10
2022-09-06T12:43:05.475Z,38.06
2022-09-06T12:45:34.240Z,38.07
2022-09-06T12:48:08.689Z,38.01
2022-09-06T12:50:37.899Z,37.41
2022-09-06T12:53:25.679Z,37.04
2022-09-06T12:56:07.093Z,36.93
2022-09-06T12:58:39.002Z,37.00
2022-09-06T13:01:14.962Z,36.47
2022-09-06T13:03:49.371Z,36.69
2022-09-06T13:06:28.021Z,36.07
2022-09-06T13:09:02.061Z,35.62
2022-09-06T13:11:38.635Z,35.92
2022-09-06T13:14:14.457Z,35.44
2022-09-06T13:16:46.395Z,35.62
2022-09-06T13:19:19.345Z,35.00
2022-09-06T13:21:50.475Z,34.97
2022-09-06T13:24:21.037Z,36.29
2022-09-06T13:26:56.059Z,35.00
2022-09-06T13:29:30.366Z,34.83
2022-09-06T13:32:05.751Z,34.92
2022-09-06T13:34:58.751Z,34.17
2022-09-06T13:37:32.101Z,34.84
2022-09-06T13:40:05.784Z,34.62
2022-09-06T13:42:38.148Z,33.54
2022-09-06T13:45:27.235Z,34.30
2022-09-06T13:48:19.347Z,34.37
2022-09-06T13:50:50.041Z,33.80
2022-09-06T13:53:21.121Z,34.02
2022-09-06T13:55:50.011Z,33.80
2022-09-06T13:58:22.417Z,33.69
2022-09-06T14:00:54.675Z,33.69
2022-09-06T14:03:29.129Z,34.21
2022-09-06T14:06:01.965Z,33.43
2022-09-06T14:08:49.682Z,33.46
2022-09-06T14:11:22.225Z,32.84
2022-09-06T14:13:55.604Z,33.56
2022-09-06T14:16:26.649Z,33.76
2022-09-06T14:18:58.216Z,32.76
2022-09-06T14:21:30.044Z,32.46
2022-09-06T14:24:04.066Z,32.04
2022-09-06T14:26:34.214Z,31.93
2022-09-06T14:29:07.537Z,32.28
2022-09-06T14:31:36.857Z,32.75
2022-09-06T14:34:06.413Z,32.73
2022-09-06T14:36:35.637Z,32.86
2022-09-06T14:39:07.158Z,33.19
2022-09-06T14:41:39.877Z,33.29
2022-09-06T14:44:13.103Z,33.14
2022-09-06T14:46:42.960Z,32.11
2022-09-06T14:49:11.769Z,32.52
2022-09-06T14:51:42.601Z,32.22
2022-09-06T14:54:15.182Z,32.04
2022-09-06T14:56:45.018Z,32.56
2022-09-06T14:59:16.423Z,32.63
2022-09-06T15:01:45.358Z,32.64
2022-09-06T15:04:15.032Z,33.37
2022-09-06T15:06:47.535Z,33.70
2022-09-06T15:09:17.810Z,33.72
2022-09-06T15:11:49.289Z,33.39
2022-09-06T15:14:21.856Z,33.05
2022-09-06T15:16:56.036Z,33.11
2022-09-06T15:19:39.068Z,32.62
2022-09-06T15:22:09.638Z,32.24
2022-09-06T15:24:39.056Z,32.70
2022-09-06T15:27:08.860Z,33.06
2022-09-06T15:29:40.392Z,33.45
2022-09-06T15:32:10.415Z,33.49
2022-09-06T15:34:40.253Z,32.74
2022-09-06T15:37:12.411Z,32.32
2022-09-06T15:39:43.503Z,30.77
2022-09-06T15:42:15.161Z,30.71
2022-09-06T15:44:45.559Z,29.93
2022-09-06T15:47:14.837Z,29.54
2022-09-06T15:49:44.335Z,29.34
2022-09-06T15:52:13.852Z,29.69
2022-09-06T15:55:01.325Z,29.41
2022-09-06T15:57:31.183Z,29.29
2022-09-06T16:00:02.300Z,29.27
2022-09-06T16:02:33.841Z,29.59
2022-09-06T16:05:07.271Z,29.81
2022-09-06T16:07:39.624Z,30.04
2022-09-06T16:10:11.950Z,30.52
2022-09-06T16:12:45.493Z,30.86
2022-09-06T16:15:20.289Z,31.46
2022-09-06T16:17:50.028Z,32.00
2022-09-06T16:20:20.075Z,32.06
2022-09-06T16:22:50.893Z,32.92
2022-09-06T16:25:20.843Z,32.70
2022-09-06T16:27:50.538Z,33.41
2022-09-06T16:30:22.827Z,33.96
2022-09-06T16:32:52.491Z,34.29
2022-09-06T16:35:24.101Z,34.63
2022-09-06T16:37:54.170Z,34.50
2022-09-06T16:40:25.261Z,34.49
2022-09-06T16:42:56.199Z,35.35
2022-09-06T16:45:28.954Z,35.43
2022-09-06T16:47:58.752Z,35.68
2022-09-06T16:50:28.593Z,35.87
2022-09-06T16:53:01.031Z,35.97
2022-09-06T16:55:31.101Z,36.04
2022-09-06T16:58:01.929Z,35.90
2022-09-06T17:00:41.940Z,36.39
2022-09-06T17:03:12.144Z,36.01
2022-09-06T17:05:42.712Z,36.56
2022-09-06T17:08:12.238Z,36.66
2022-09-06T17:10:44.302Z,36.28
2022-09-06T17:13:15.430Z,36.87
2022-09-06T17:16:15.824Z,36.21
2022-09-06T17:18:48.527Z,36.35
2022-09-06T17:21:19.220Z,36.79
2022-09-06T17:23:49.793Z,36.34
2022-09-06T17:26:21.693Z,37.19
2022-09-06T17:28:51.902Z,36.62
2022-09-06T17:31:25.848Z,37.29
2022-09-06T17:33:58.183Z,37.02
2022-09-06T17:36:31.238Z,36.86
2022-09-06T17:39:07.837Z,37.63
2022-09-06T17:41:41.344Z,37.50
2022-09-06T17:44:13.320Z,37.47
2022-09-06T17:47:02.711Z,37.74
2022-09-06T17:49:34.440Z,37.75
2022-09-06T17:52:04.395Z,37.28
2022-09-06T17:54:33.706Z,37.59
2022-09-06T17:57:04.210Z,37.34
2022-09-06T17:59:35.945Z,37.75
2022-09-06T18:02:06.661Z,37.74
2022-09-06T18:04:35.902Z,37.94
2022-09-06T18:07:06.663Z,37.29
2022-09-06T18:09:38.074Z,37.94
2022-09-06T18:12:07.093Z,37.28
2022-09-06T18:14:36.846Z,37.87
2022-09-06T18:17:10.033Z,37.35
2022-09-06T18:19:41.239Z,37.48
2022-09-06T18:22:14.800Z,37.71
2022-09-06T18:24:45.689Z,38.16
2022-09-06T18:27:14.788Z,37.99
2022-09-06T18:29:44.788Z,37.83
2022-09-06T18:32:16.297Z,38.09
2022-09-06T18:34:45.323Z,38.20
2022-09-06T18:37:15.287Z,38.20
2022-09-06T18:39:45.001Z,38.27
2022-09-06T18:42:15.204Z,38.12
2022-09-06T18:44:43.919Z,38.78
2022-09-06T18:47:15.120Z,38.60
2022-09-06T18:49:44.852Z,38.51
2022-09-06T18:52:15.326Z,38.65
2022-09-06T18:54:46.807Z,38.24
2022-09-06T18:57:18.202Z,38.77
2022-09-06T18:59:47.885Z,38.62
2022-09-06T19:02:21.264Z,38.37
2022-09-06T19:04:54.648Z,38.10
2022-09-06T19:07:32.306Z,38.67
2022-09-06T19:10:01.990Z,38.42
2022-09-06T19:12:32.525Z,38.22
2022-09-06T19:15:12.964Z,38.78
2022-09-06T19:17:46.268Z,38.87
2022-09-06T19:20:17.912Z,38.03
2022-09-06T19:22:48.310Z,38.72
2022-09-06T19:25:19.394Z,38.62
2022-09-06T19:27:50.624Z,38.69
2022-09-06T19:30:21.244Z,38.40
2022-09-06T19:32:54.436Z,38.45
2022-09-06T19:35:25.010Z,38.71
2022-09-06T19:37:55.692Z,38.76
2022-09-06T19:40:25.240Z,38.50
2022-09-06T19:42:54.933Z,38.68
2022-09-06T19:45:26.814Z,38.47
2022-09-06T19:47:58.177Z,38.10
2022-09-06T19:50:29.350Z,38.57
2022-09-06T19:52:59.486Z,38.49
2022-09-06T19:55:33.149Z,38.82
2022-09-06T19:58:04.604Z,38.85
2022-09-06T20:00:35.600Z,38.59
2022-09-06T20:03:20.597Z,39.36
2022-09-06T20:05:59.580Z,39.71
2022-09-06T20:08:32.368Z,39.82
2022-09-06T20:11:02.906Z,39.84
2022-09-06T20:13:32.733Z,39.63
2022-09-06T20:16:05.847Z,39.48
2022-09-06T20:18:36.960Z,39.95
2022-09-06T20:21:08.348Z,39.84
2022-09-06T20:23:39.474Z,39.94
2022-09-06T20:26:12.057Z,40.08
2022-09-06T20:28:42.378Z,39.87
2022-09-06T20:31:13.256Z,40.19
2022-09-06T20:33:49.354Z,40.11
2022-09-06T20:36:22.294Z,40.38
2022-09-06T20:38:54.570Z,40.12
2022-09-06T20:41:28.786Z,40.11
2022-09-06T20:43:59.220Z,40.09
2022-09-06T20:46:33.584Z,40.24
2022-09-06T20:49:12.540Z,40.13
2022-09-06T20:51:46.343Z,40.57
2022-09-06T20:54:16.795Z,40.67
2022-09-06T20:56:45.057Z,40.70
2022-09-06T20:59:14.633Z,40.54
2022-09-06T21:01:44.959Z,40.78
2022-09-06T21:04:17.655Z,40.79
2022-09-06T21:06:46.706Z,40.76
2022-09-06T21:09:16.047Z,41.08
2022-09-06T21:11:45.265Z,41.18
2022-09-06T21:14:14.930Z,41.14
2022-09-06T21:16:43.686Z,41.16
2022-09-06T21:19:13.916Z,41.03
2022-09-06T21:21:42.200Z,41.43
2022-09-06T21:24:11.660Z,40.98
2022-09-06T21:26:40.875Z,40.91
2022-09-06T21:29:08.848Z,41.36
2022-09-06T21:31:38.241Z,40.90
2022-09-06T21:34:11.480Z,40.96
2022-09-06T21:36:43.684Z,40.77
2022-09-06T21:39:13.402Z,40.95
2022-09-06T21:41:43.458Z,41.08
2022-09-06T21:44:12.357Z,41.26
2022-09-06T21:46:41.561Z,41.15
2022-09-06T21:49:11.297Z,40.91
2022-09-06T21:51:39.755Z,41.36
2022-09-06T21:54:09.316Z,41.37
2022-09-06T21:56:39.164Z,41.40
2022-09-06T21:59:10.510Z,41.25
2022-09-06T22:01:45.186Z,41.62
2022-09-06T22:04:21.948Z,41.42
2022-09-06T22:06:56.416Z,41.46
2022-09-06T22:09:31.388Z,41.32
2022-09-06T22:12:03.321Z,41.19
2022-09-06T22:14:34.353Z,41.02
2022-09-06T22:17:08.819Z,41.27
2022-09-06T22:19:39.350Z,41.11
2022-09-06T22:22:12.750Z,40.73
2022-09-06T22:24:45.002Z,41.20
2022-09-06T22:27:16.479Z,41.14
2022-09-06T22:29:47.060Z,40.86
2022-09-06T22:32:21.623Z,40.63
2022-09-06T22:34:52.612Z,40.87
2022-09-06T22:37:23.472Z,40.88
2022-09-06T22:39:56.231Z,41.02
2022-09-06T22:42:27.504Z,40.96
2022-09-06T22:44:57.650Z,40.96
2022-09-06T22:47:28.251Z,41.15
2022-09-06T22:49:58.848Z,41.11
2022-09-06T22:52:30.546Z,41.41
2022-09-06T22:55:02.826Z,41.74
2022-09-06T22:57:32.915Z,41.22
2022-09-06T23:00:04.792Z,40.96
2022-09-06T23:02:37.873Z,40.88
2022-09-06T23:05:07.214Z,41.39
2022-09-06T23:07:36.764Z,41.52
2022-09-06T23:10:11.476Z,41.87
2022-09-06T23:12:43.316Z,41.88
2022-09-06T23:15:14.927Z,41.69
2022-09-06T23:17:46.576Z,41.38
2022-09-06T23:20:18.729Z,41.06
2022-09-06T23:22:49.542Z,41.05
2022-09-06T23:25:20.650Z,40.86
2022-09-06T23:27:51.796Z,40.98
2022-09-06T23:30:22.638Z,40.98
2022-09-06T23:32:52.697Z,40.92
2022-09-06T23:35:23.171Z,41.21
2022-09-06T23:37:55.234Z,41.44
2022-09-06T23:40:27.357Z,41.64
2022-09-06T23:42:57.845Z,41.58
2022-09-06T23:45:26.727Z,41.76
2022-09-06T23:47:56.957Z,42.31
2022-09-06T23:50:25.773Z,42.69
2022-09-06T23:52:54.699Z,42.99
2022-09-06T23:55:23.385Z,43.77
2022-09-06T23:57:55.872Z,44.08
